sensor_id;sensor_type;location;lat;lon;timestamp;temperature;humidity
75022;SHT31;63583;49.976;20.182;2023-03-01T00:01:36;-2.26;82.11
75022;SHT31;63583;49.976;20.182;2023-03-01T00:04:01;-2.32;82.25
75022;SHT31;63583;49.976;20.182;2023-03-01T00:06:27;-2.30;82.53
75022;SHT31;63583;49.976;20.182;2023-03-01T00:08:53;-2.29;82.47
75022;SHT31;63583;49.976;20.182;2023-03-01T00:11:21;-2.36;82.51
75022;SHT31;63583;49.976;20.182;2023-03-01T00:13:50;-2.42;82.57
75022;SHT31;63583;49.976;20.182;2023-03-01T00:18:54;-2.50;82.62
75022;SHT31;63583;49.976;20.182;2023-03-01T00:21:21;-2.49;82.83
75022;SHT31;63583;49.976;20.182;2023-03-01T00:23:47;-2.42;83.25
75022;SHT31;63583;49.976;20.182;2023-03-01T00:26:18;-2.39;83.03
75022;SHT31;63583;49.976;20.182;2023-03-01T00:28:45;-2.36;83.23
75022;SHT31;63583;49.976;20.182;2023-03-01T00:31:17;-2.34;83.41
75022;SHT31;63583;49.976;20.182;2023-03-01T00:33:43;-2.34;83.50
75022;SHT31;63583;49.976;20.182;2023-03-01T00:36:11;-2.33;83.23
75022;SHT31;63583;49.976;20.182;2023-03-01T00:38:38;-2.37;83.43
75022;SHT31;63583;49.976;20.182;2023-03-01T00:41:15;-2.64;84.10
75022;SHT31;63583;49.976;20.182;2023-03-01T00:43:42;-2.71;84.39
75022;SHT31;63583;49.976;20.182;2023-03-01T00:46:10;-2.65;84.49
75022;SHT31;63583;49.976;20.182;2023-03-01T00:48:37;-2.54;84.58
75022;SHT31;63583;49.976;20.182;2023-03-01T00:51:08;-2.42;84.22
75022;SHT31;63583;49.976;20.182;2023-03-01T00:53:34;-2.32;84.22
75022;SHT31;63583;49.976;20.182;2023-03-01T00:56:01;-2.36;84.33
75022;SHT31;63583;49.976;20.182;2023-03-01T00:58:27;-2.37;84.51
75022;SHT31;63583;49.976;20.182;2023-03-01T01:00:53;-2.44;84.97
75022;SHT31;63583;49.976;20.182;2023-03-01T01:03:19;-2.52;85.75
75022;SHT31;63583;49.976;20.182;2023-03-01T01:05:45;-2.47;86.07
75022;SHT31;63583;49.976;20.182;2023-03-01T01:08:11;-2.37;86.51
75022;SHT31;63583;49.976;20.182;2023-03-01T01:10:36;-2.37;86.39
75022;SHT31;63583;49.976;20.182;2023-03-01T01:13:03;-2.47;86.90
75022;SHT31;63583;49.976;20.182;2023-03-01T01:15:31;-2.40;88.07
75022;SHT31;63583;49.976;20.182;2023-03-01T01:17:58;-2.44;88.42
75022;SHT31;63583;49.976;20.182;2023-03-01T01:20:24;-2.47;88.42
75022;SHT31;63583;49.976;20.182;2023-03-01T01:22:50;-2.67;88.70
75022;SHT31;63583;49.976;20.182;2023-03-01T01:25:17;-2.63;88.27
75022;SHT31;63583;49.976;20.182;2023-03-01T01:27:42;-2.77;88.01
75022;SHT31;63583;49.976;20.182;2023-03-01T01:30:08;-3.11;88.96
75022;SHT31;63583;49.976;20.182;2023-03-01T01:32:34;-3.23;89.59
75022;SHT31;63583;49.976;20.182;2023-03-01T01:35:00;-3.12;89.23
75022;SHT31;63583;49.976;20.182;2023-03-01T01:37:26;-3.24;89.56
75022;SHT31;63583;49.976;20.182;2023-03-01T01:39:58;-3.13;89.75
75022;SHT31;63583;49.976;20.182;2023-03-01T01:42:25;-3.02;88.99
75022;SHT31;63583;49.976;20.182;2023-03-01T01:48:09;-2.74;86.88
75022;SHT31;63583;49.976;20.182;2023-03-01T01:50:38;-2.67;86.20
75022;SHT31;63583;49.976;20.182;2023-03-01T01:53:15;-2.58;85.95
75022;SHT31;63583;49.976;20.182;2023-03-01T01:55:49;-2.52;85.38
75022;SHT31;63583;49.976;20.182;2023-03-01T01:58:19;-2.60;85.39
75022;SHT31;63583;49.976;20.182;2023-03-01T02:00:46;-2.54;85.44
75022;SHT31;63583;49.976;20.182;2023-03-01T02:03:14;-2.53;85.34
75022;SHT31;63583;49.976;20.182;2023-03-01T02:06:00;-2.44;85.01
75022;SHT31;63583;49.976;20.182;2023-03-01T02:08:30;-2.49;84.72
75022;SHT31;63583;49.976;20.182;2023-03-01T02:10:58;-2.43;84.53
75022;SHT31;63583;49.976;20.182;2023-03-01T02:13:26;-2.53;84.82
75022;SHT31;63583;49.976;20.182;2023-03-01T02:15:52;-2.42;84.36
75022;SHT31;63583;49.976;20.182;2023-03-01T02:18:19;-2.36;83.84
75022;SHT31;63583;49.976;20.182;2023-03-01T02:23:15;-2.49;84.28
75022;SHT31;63583;49.976;20.182;2023-03-01T02:25:49;-2.44;84.38
75022;SHT31;63583;49.976;20.182;2023-03-01T02:28:35;-2.54;84.31
75022;SHT31;63583;49.976;20.182;2023-03-01T02:31:02;-2.67;84.70
75022;SHT31;63583;49.976;20.182;2023-03-01T02:33:47;-2.85;86.30
75022;SHT31;63583;49.976;20.182;2023-03-01T02:36:19;-2.91;86.40
75022;SHT31;63583;49.976;20.182;2023-03-01T02:38:46;-2.96;86.43
75022;SHT31;63583;49.976;20.182;2023-03-01T02:41:15;-3.02;86.89
75022;SHT31;63583;49.976;20.182;2023-03-01T02:43:41;-3.09;87.16
75022;SHT31;63583;49.976;20.182;2023-03-01T02:46:17;-3.08;87.01
75022;SHT31;63583;49.976;20.182;2023-03-01T02:48:49;-3.13;86.83
75022;SHT31;63583;49.976;20.182;2023-03-01T02:51:51;-3.17;86.94
75022;SHT31;63583;49.976;20.182;2023-03-01T02:54:23;-3.17;87.38
75022;SHT31;63583;49.976;20.182;2023-03-01T02:56:51;-3.17;88.29
75022;SHT31;63583;49.976;20.182;2023-03-01T02:59:19;-3.20;87.73
75022;SHT31;63583;49.976;20.182;2023-03-01T03:01:45;-3.26;87.49
75022;SHT31;63583;49.976;20.182;2023-03-01T03:04:15;-3.23;87.55
75022;SHT31;63583;49.976;20.182;2023-03-01T03:06:45;-3.22;87.07
75022;SHT31;63583;49.976;20.182;2023-03-01T03:09:12;-3.22;88.12
75022;SHT31;63583;49.976;20.182;2023-03-01T03:11:38;-3.26;88.56
75022;SHT31;63583;49.976;20.182;2023-03-01T03:14:07;-3.22;89.01
75022;SHT31;63583;49.976;20.182;2023-03-01T03:16:42;-3.23;88.60
75022;SHT31;63583;49.976;20.182;2023-03-01T03:19:08;-3.22;88.57
75022;SHT31;63583;49.976;20.182;2023-03-01T03:21:34;-3.24;88.12
75022;SHT31;63583;49.976;20.182;2023-03-01T03:24:01;-3.15;87.93
75022;SHT31;63583;49.976;20.182;2023-03-01T03:26:27;-2.99;86.95
75022;SHT31;63583;49.976;20.182;2023-03-01T03:28:52;-2.95;86.37
75022;SHT31;63583;49.976;20.182;2023-03-01T03:31:19;-3.09;86.87
75022;SHT31;63583;49.976;20.182;2023-03-01T03:33:44;-3.20;87.32
75022;SHT31;63583;49.976;20.182;2023-03-01T03:36:21;-3.19;88.26
75022;SHT31;63583;49.976;20.182;2023-03-01T03:38:47;-3.15;88.71
75022;SHT31;63583;49.976;20.182;2023-03-01T03:41:15;-3.17;88.68
75022;SHT31;63583;49.976;20.182;2023-03-01T03:43:41;-3.49;89.71
75022;SHT31;63583;49.976;20.182;2023-03-01T03:46:09;-3.70;90.79
75022;SHT31;63583;49.976;20.182;2023-03-01T03:48:43;-3.59;90.64
75022;SHT31;63583;49.976;20.182;2023-03-01T03:51:14;-3.51;90.30
75022;SHT31;63583;49.976;20.182;2023-03-01T03:53:40;-3.47;89.95
75022;SHT31;63583;49.976;20.182;2023-03-01T03:56:06;-3.35;89.56
75022;SHT31;63583;49.976;20.182;2023-03-01T03:58:32;-3.36;89.36
75022;SHT31;63583;49.976;20.182;2023-03-01T04:00:58;-3.44;89.28
75022;SHT31;63583;49.976;20.182;2023-03-01T04:03:25;-3.59;89.87
75022;SHT31;63583;49.976;20.182;2023-03-01T04:05:52;-3.64;91.51
75022;SHT31;63583;49.976;20.182;2023-03-01T04:08:19;-3.64;91.05
75022;SHT31;63583;49.976;20.182;2023-03-01T04:10:49;-3.68;90.94
75022;SHT31;63583;49.976;20.182;2023-03-01T04:13:20;-3.71;90.80
75022;SHT31;63583;49.976;20.182;2023-03-01T04:15:52;-3.71;90.93
75022;SHT31;63583;49.976;20.182;2023-03-01T04:18:19;-3.73;90.71
75022;SHT31;63583;49.976;20.182;2023-03-01T04:20:46;-3.68;90.44
75022;SHT31;63583;49.976;20.182;2023-03-01T04:23:17;-3.73;90.10
75022;SHT31;63583;49.976;20.182;2023-03-01T04:25:52;-3.73;90.06
75022;SHT31;63583;49.976;20.182;2023-03-01T04:28:26;-3.73;89.77
75022;SHT31;63583;49.976;20.182;2023-03-01T04:30:54;-3.60;89.17
75022;SHT31;63583;49.976;20.182;2023-03-01T04:33:20;-3.67;89.06
75022;SHT31;63583;49.976;20.182;2023-03-01T04:35:46;-3.67;89.16
75022;SHT31;63583;49.976;20.182;2023-03-01T04:38:17;-3.71;89.22
75022;SHT31;63583;49.976;20.182;2023-03-01T04:40:43;-3.68;89.43
75022;SHT31;63583;49.976;20.182;2023-03-01T04:43:10;-3.57;89.53
75022;SHT31;63583;49.976;20.182;2023-03-01T04:45:37;-3.70;89.44
75022;SHT31;63583;49.976;20.182;2023-03-01T04:48:03;-3.61;89.81
75022;SHT31;63583;49.976;20.182;2023-03-01T04:50:29;-3.67;89.40
75022;SHT31;63583;49.976;20.182;2023-03-01T04:52:55;-3.85;90.26
75022;SHT31;63583;49.976;20.182;2023-03-01T04:55:27;-3.95;90.88
75022;SHT31;63583;49.976;20.182;2023-03-01T04:57:54;-4.12;91.60
75022;SHT31;63583;49.976;20.182;2023-03-01T05:00:21;-4.13;92.10
75022;SHT31;63583;49.976;20.182;2023-03-01T05:02:54;-3.98;92.27
75022;SHT31;63583;49.976;20.182;2023-03-01T05:07:57;-3.97;92.14
75022;SHT31;63583;49.976;20.182;2023-03-01T05:10:25;-3.84;91.78
75022;SHT31;63583;49.976;20.182;2023-03-01T05:12:51;-3.63;90.47
75022;SHT31;63583;49.976;20.182;2023-03-01T05:15:19;-3.57;89.13
75022;SHT31;63583;49.976;20.182;2023-03-01T05:17:48;-3.70;89.37
75022;SHT31;63583;49.976;20.182;2023-03-01T05:20:14;-3.61;89.19
75022;SHT31;63583;49.976;20.182;2023-03-01T05:22:39;-3.64;89.12
75022;SHT31;63583;49.976;20.182;2023-03-01T05:25:06;-3.59;89.22
75022;SHT31;63583;49.976;20.182;2023-03-01T05:27:33;-3.43;88.48
75022;SHT31;63583;49.976;20.182;2023-03-01T05:29:58;-3.42;88.24
75022;SHT31;63583;49.976;20.182;2023-03-01T05:32:24;-3.49;88.78
75022;SHT31;63583;49.976;20.182;2023-03-01T05:34:50;-3.42;88.74
75022;SHT31;63583;49.976;20.182;2023-03-01T05:37:17;-3.42;88.58
75022;SHT31;63583;49.976;20.182;2023-03-01T05:39:43;-3.59;88.87
75022;SHT31;63583;49.976;20.182;2023-03-01T05:42:10;-3.57;89.25
75022;SHT31;63583;49.976;20.182;2023-03-01T05:44:36;-3.64;89.31
75022;SHT31;63583;49.976;20.182;2023-03-01T05:47:02;-3.68;89.40
75022;SHT31;63583;49.976;20.182;2023-03-01T05:49:28;-3.67;89.44
75022;SHT31;63583;49.976;20.182;2023-03-01T05:51:53;-3.66;89.38
75022;SHT31;63583;49.976;20.182;2023-03-01T05:54:20;-3.63;89.36
75022;SHT31;63583;49.976;20.182;2023-03-01T05:56:47;-3.46;89.16
75022;SHT31;63583;49.976;20.182;2023-03-01T05:59:13;-3.33;88.80
75022;SHT31;63583;49.976;20.182;2023-03-01T06:01:39;-3.30;88.69
75022;SHT31;63583;49.976;20.182;2023-03-01T06:04:04;-3.29;88.52
75022;SHT31;63583;49.976;20.182;2023-03-01T06:06:35;-3.30;88.46
75022;SHT31;63583;49.976;20.182;2023-03-01T06:09:04;-3.36;88.71
75022;SHT31;63583;49.976;20.182;2023-03-01T06:11:29;-3.30;88.77
75022;SHT31;63583;49.976;20.182;2023-03-01T06:13:55;-3.24;88.73
75022;SHT31;63583;49.976;20.182;2023-03-01T06:16:21;-3.23;88.61
75022;SHT31;63583;49.976;20.182;2023-03-01T06:18:47;-3.17;88.60
75022;SHT31;63583;49.976;20.182;2023-03-01T06:21:12;-3.08;88.65
75022;SHT31;63583;49.976;20.182;2023-03-01T06:23:38;-2.95;88.16
75022;SHT31;63583;49.976;20.182;2023-03-01T06:26:07;-2.94;88.14
75022;SHT31;63583;49.976;20.182;2023-03-01T06:28:34;-2.89;88.18
75022;SHT31;63583;49.976;20.182;2023-03-01T06:31:00;-2.80;88.04
75022;SHT31;63583;49.976;20.182;2023-03-01T06:33:26;-2.78;87.86
75022;SHT31;63583;49.976;20.182;2023-03-01T06:35:54;-2.73;87.59
75022;SHT31;63583;49.976;20.182;2023-03-01T06:38:20;-2.60;87.27
75022;SHT31;63583;49.976;20.182;2023-03-01T06:40:51;-2.40;86.57
75022;SHT31;63583;49.976;20.182;2023-03-01T06:43:17;-2.25;86.20
75022;SHT31;63583;49.976;20.182;2023-03-01T06:45:43;-2.21;86.09
75022;SHT31;63583;49.976;20.182;2023-03-01T06:48:09;-2.06;86.03
75022;SHT31;63583;49.976;20.182;2023-03-01T06:50:35;-1.85;85.78
75022;SHT31;63583;49.976;20.182;2023-03-01T06:53:02;-1.70;85.18
75022;SHT31;63583;49.976;20.182;2023-03-01T06:55:27;-1.54;84.80
75022;SHT31;63583;49.976;20.182;2023-03-01T06:57:57;-1.39;84.25
75022;SHT31;63583;49.976;20.182;2023-03-01T07:00:23;-1.25;83.25
75022;SHT31;63583;49.976;20.182;2023-03-01T07:02:49;-0.99;82.57
75022;SHT31;63583;49.976;20.182;2023-03-01T07:05:15;-0.91;81.71
75022;SHT31;63583;49.976;20.182;2023-03-01T07:07:41;-0.82;82.59
75022;SHT31;63583;49.976;20.182;2023-03-01T07:10:07;-0.72;84.26
75022;SHT31;63583;49.976;20.182;2023-03-01T07:12:33;-0.54;84.55
75022;SHT31;63583;49.976;20.182;2023-03-01T07:14:59;-0.58;83.64
75022;SHT31;63583;49.976;20.182;2023-03-01T07:17:24;-0.44;83.72
75022;SHT31;63583;49.976;20.182;2023-03-01T07:19:50;-0.37;82.60
75022;SHT31;63583;49.976;20.182;2023-03-01T07:22:16;-0.33;81.88
75022;SHT31;63583;49.976;20.182;2023-03-01T07:24:42;-0.34;81.84
75022;SHT31;63583;49.976;20.182;2023-03-01T07:27:08;-0.43;81.93
75022;SHT31;63583;49.976;20.182;2023-03-01T07:29:34;-0.33;82.69
75022;SHT31;63583;49.976;20.182;2023-03-01T07:32:03;-0.20;82.55
75022;SHT31;63583;49.976;20.182;2023-03-01T07:34:29;-0.20;81.85
75022;SHT31;63583;49.976;20.182;2023-03-01T07:36:54;-0.03;82.30
75022;SHT31;63583;49.976;20.182;2023-03-01T07:39:20;-0.01;81.44
75022;SHT31;63583;49.976;20.182;2023-03-01T07:41:49;0.11;81.30
75022;SHT31;63583;49.976;20.182;2023-03-01T07:44:14;0.25;80.31
75022;SHT31;63583;49.976;20.182;2023-03-01T07:46:42;0.42;79.90
75022;SHT31;63583;49.976;20.182;2023-03-01T07:49:07;0.46;79.67
75022;SHT31;63583;49.976;20.182;2023-03-01T07:51:33;0.64;79.12
75022;SHT31;63583;49.976;20.182;2023-03-01T07:53:59;0.72;77.92
75022;SHT31;63583;49.976;20.182;2023-03-01T07:56:24;0.73;75.60
75022;SHT31;63583;49.976;20.182;2023-03-01T07:58:50;0.63;78.17
75022;SHT31;63583;49.976;20.182;2023-03-01T08:01:18;0.85;76.70
75022;SHT31;63583;49.976;20.182;2023-03-01T08:03:44;0.45;77.34
75022;SHT31;63583;49.976;20.182;2023-03-01T08:06:12;0.76;77.43
75022;SHT31;63583;49.976;20.182;2023-03-01T08:08:38;0.91;75.70
75022;SHT31;63583;49.976;20.182;2023-03-01T08:11:06;1.00;76.71
75022;SHT31;63583;49.976;20.182;2023-03-01T08:13:33;1.14;76.85
75022;SHT31;63583;49.976;20.182;2023-03-01T08:16:08;1.42;75.16
75022;SHT31;63583;49.976;20.182;2023-03-01T08:18:35;1.53;74.67
75022;SHT31;63583;49.976;20.182;2023-03-01T08:21:06;1.73;72.37
75022;SHT31;63583;49.976;20.182;2023-03-01T08:23:32;1.86;73.39
75022;SHT31;63583;49.976;20.182;2023-03-01T08:26:09;2.00;72.74
75022;SHT31;63583;49.976;20.182;2023-03-01T08:28:35;2.17;72.39
75022;SHT31;63583;49.976;20.182;2023-03-01T08:31:02;2.21;72.50
75022;SHT31;63583;49.976;20.182;2023-03-01T08:33:28;2.29;71.61
75022;SHT31;63583;49.976;20.182;2023-03-01T08:36:02;2.24;70.42
75022;SHT31;63583;49.976;20.182;2023-03-01T08:38:28;2.22;70.18
75022;SHT31;63583;49.976;20.182;2023-03-01T08:40:54;2.41;69.69
75022;SHT31;63583;49.976;20.182;2023-03-01T08:43:19;2.28;70.48
75022;SHT31;63583;49.976;20.182;2023-03-01T08:45:48;2.29;70.59
75022;SHT31;63583;49.976;20.182;2023-03-01T08:48:13;2.45;71.09
75022;SHT31;63583;49.976;20.182;2023-03-01T08:50:39;2.48;71.08
75022;SHT31;63583;49.976;20.182;2023-03-01T08:53:06;2.72;69.92
75022;SHT31;63583;49.976;20.182;2023-03-01T08:55:32;2.92;71.35
75022;SHT31;63583;49.976;20.182;2023-03-01T08:57:57;2.83;69.57
75022;SHT31;63583;49.976;20.182;2023-03-01T09:00:26;2.87;67.83
75022;SHT31;63583;49.976;20.182;2023-03-01T09:02:52;2.90;68.05
75022;SHT31;63583;49.976;20.182;2023-03-01T09:05:18;2.75;69.54
75022;SHT31;63583;49.976;20.182;2023-03-01T09:07:44;2.66;70.37
75022;SHT31;63583;49.976;20.182;2023-03-01T09:10:10;2.83;69.34
75022;SHT31;63583;49.976;20.182;2023-03-01T09:12:36;2.93;71.16
75022;SHT31;63583;49.976;20.182;2023-03-01T09:15:02;2.99;68.43
75022;SHT31;63583;49.976;20.182;2023-03-01T09:17:28;3.11;68.72
75022;SHT31;63583;49.976;20.182;2023-03-01T09:19:53;3.23;67.43
75022;SHT31;63583;49.976;20.182;2023-03-01T09:22:19;3.36;67.71
75022;SHT31;63583;49.976;20.182;2023-03-01T09:24:45;2.86;66.84
75022;SHT31;63583;49.976;20.182;2023-03-01T09:27:10;3.07;67.61
75022;SHT31;63583;49.976;20.182;2023-03-01T09:29:38;3.18;66.88
75022;SHT31;63583;49.976;20.182;2023-03-01T09:32:03;3.00;66.31
75022;SHT31;63583;49.976;20.182;2023-03-01T09:34:30;3.00;65.92
75022;SHT31;63583;49.976;20.182;2023-03-01T09:36:57;3.08;65.66
75022;SHT31;63583;49.976;20.182;2023-03-01T09:39:23;3.00;65.80
75022;SHT31;63583;49.976;20.182;2023-03-01T09:47:19;3.10;65.02
75022;SHT31;63583;49.976;20.182;2023-03-01T09:49:57;3.00;65.57
75022;SHT31;63583;49.976;20.182;2023-03-01T09:55:39;2.90;64.69
75022;SHT31;63583;49.976;20.182;2023-03-01T10:00:53;3.08;61.58
75022;SHT31;63583;49.976;20.182;2023-03-01T10:03:28;3.21;61.70
75022;SHT31;63583;49.976;20.182;2023-03-01T10:10:57;3.27;62.44
75022;SHT31;63583;49.976;20.182;2023-03-01T10:13:48;3.04;62.61
75022;SHT31;63583;49.976;20.182;2023-03-01T10:16:26;3.08;61.97
75022;SHT31;63583;49.976;20.182;2023-03-01T10:18:59;3.08;61.58
75022;SHT31;63583;49.976;20.182;2023-03-01T10:21:27;3.07;62.06
75022;SHT31;63583;49.976;20.182;2023-03-01T10:23:54;3.01;62.00
75022;SHT31;63583;49.976;20.182;2023-03-01T10:26:44;3.18;61.48
75022;SHT31;63583;49.976;20.182;2023-03-01T10:29:13;3.34;61.30
75022;SHT31;63583;49.976;20.182;2023-03-01T10:31:50;3.30;62.92
75022;SHT31;63583;49.976;20.182;2023-03-01T10:34:33;3.27;63.95
75022;SHT31;63583;49.976;20.182;2023-03-01T10:37:15;3.39;62.98
75022;SHT31;63583;49.976;20.182;2023-03-01T10:40:02;3.39;63.95
75022;SHT31;63583;49.976;20.182;2023-03-01T10:42:47;3.34;64.41
75022;SHT31;63583;49.976;20.182;2023-03-01T10:47:45;3.36;64.46
75022;SHT31;63583;49.976;20.182;2023-03-01T10:50:22;3.48;63.93
75022;SHT31;63583;49.976;20.182;2023-03-01T10:53:03;3.54;62.98
75022;SHT31;63583;49.976;20.182;2023-03-01T10:55:39;3.39;63.20
75022;SHT31;63583;49.976;20.182;2023-03-01T10:58:16;3.54;63.30
75022;SHT31;63583;49.976;20.182;2023-03-01T11:00:57;3.75;63.60
75022;SHT31;63583;49.976;20.182;2023-03-01T11:03:29;3.86;62.13
75022;SHT31;63583;49.976;20.182;2023-03-01T11:06:25;3.55;64.79
75022;SHT31;63583;49.976;20.182;2023-03-01T11:08:51;3.32;65.28
75022;SHT31;63583;49.976;20.182;2023-03-01T11:11:34;3.21;63.97
75022;SHT31;63583;49.976;20.182;2023-03-01T11:14:36;3.48;63.31
75022;SHT31;63583;49.976;20.182;2023-03-01T11:17:12;3.54;62.87
75022;SHT31;63583;49.976;20.182;2023-03-01T11:19:41;3.72;63.16
75022;SHT31;63583;49.976;20.182;2023-03-01T11:22:18;3.79;62.90
75022;SHT31;63583;49.976;20.182;2023-03-01T11:24:52;3.96;61.80
75022;SHT31;63583;49.976;20.182;2023-03-01T11:27:24;3.72;61.83
75022;SHT31;63583;49.976;20.182;2023-03-01T11:33:15;3.92;60.62
75022;SHT31;63583;49.976;20.182;2023-03-01T11:38:47;3.85;60.41
75022;SHT31;63583;49.976;20.182;2023-03-01T11:41:19;3.89;61.17
75022;SHT31;63583;49.976;20.182;2023-03-01T11:54:30;3.89;58.92
75022;SHT31;63583;49.976;20.182;2023-03-01T12:08:04;4.21;55.90
75022;SHT31;63583;49.976;20.182;2023-03-01T12:10:44;4.20;56.70
75022;SHT31;63583;49.976;20.182;2023-03-01T12:13:42;4.22;57.75
75022;SHT31;63583;49.976;20.182;2023-03-01T12:29:38;4.59;56.85
75022;SHT31;63583;49.976;20.182;2023-03-01T12:32:25;4.73;56.50
75022;SHT31;63583;49.976;20.182;2023-03-01T12:35:36;4.69;57.41
75022;SHT31;63583;49.976;20.182;2023-03-01T12:38:31;4.62;57.36
75022;SHT31;63583;49.976;20.182;2023-03-01T12:46:52;4.92;54.06
75022;SHT31;63583;49.976;20.182;2023-03-01T12:49:28;4.67;53.63
75022;SHT31;63583;49.976;20.182;2023-03-01T12:52:03;4.68;53.05
75022;SHT31;63583;49.976;20.182;2023-03-01T12:54:36;4.72;53.31
75022;SHT31;63583;49.976;20.182;2023-03-01T13:02:47;5.09;52.14
75022;SHT31;63583;49.976;20.182;2023-03-01T13:05:33;5.12;53.00
75022;SHT31;63583;49.976;20.182;2023-03-01T13:08:23;4.90;52.96
75022;SHT31;63583;49.976;20.182;2023-03-01T13:11:00;4.86;53.43
75022;SHT31;63583;49.976;20.182;2023-03-01T13:13:27;4.83;52.98
75022;SHT31;63583;49.976;20.182;2023-03-01T13:15:54;4.79;52.37
75022;SHT31;63583;49.976;20.182;2023-03-01T13:20:49;4.83;52.15
75022;SHT31;63583;49.976;20.182;2023-03-01T13:31:56;4.65;49.94
75022;SHT31;63583;49.976;20.182;2023-03-01T13:34:01;5.05;49.60
75022;SHT31;63583;49.976;20.182;2023-03-01T13:39:03;5.00;48.45
75022;SHT31;63583;49.976;20.182;2023-03-01T13:44:35;5.03;50.12
75022;SHT31;63583;49.976;20.182;2023-03-01T13:49:47;4.58;50.07
75022;SHT31;63583;49.976;20.182;2023-03-01T13:52:36;4.47;49.64
75022;SHT31;63583;49.976;20.182;2023-03-01T13:55:06;4.67;49.99
75022;SHT31;63583;49.976;20.182;2023-03-01T13:57:40;4.82;49.25
75022;SHT31;63583;49.976;20.182;2023-03-01T14:00:28;4.64;49.55
75022;SHT31;63583;49.976;20.182;2023-03-01T14:03:15;4.62;49.87
75022;SHT31;63583;49.976;20.182;2023-03-01T14:05:59;4.64;52.50
75022;SHT31;63583;49.976;20.182;2023-03-01T14:08:27;4.59;52.16
75022;SHT31;63583;49.976;20.182;2023-03-01T14:11:04;4.52;52.86
75022;SHT31;63583;49.976;20.182;2023-03-01T14:19:29;4.92;51.68
75022;SHT31;63583;49.976;20.182;2023-03-01T14:24:46;5.00;52.54
75022;SHT31;63583;49.976;20.182;2023-03-01T14:27:13;4.93;53.94
75022;SHT31;63583;49.976;20.182;2023-03-01T14:29:40;4.89;52.49
75022;SHT31;63583;49.976;20.182;2023-03-01T14:32:20;5.13;51.82
75022;SHT31;63583;49.976;20.182;2023-03-01T14:34:48;4.85;52.06
75022;SHT31;63583;49.976;20.182;2023-03-01T14:37:27;4.95;52.29
75022;SHT31;63583;49.976;20.182;2023-03-01T14:39:53;4.68;52.24
75022;SHT31;63583;49.976;20.182;2023-03-01T14:42:21;4.82;52.52
75022;SHT31;63583;49.976;20.182;2023-03-01T14:44:50;4.92;51.77
75022;SHT31;63583;49.976;20.182;2023-03-01T14:47:28;4.54;54.11
75022;SHT31;63583;49.976;20.182;2023-03-01T14:50:00;4.38;54.49
75022;SHT31;63583;49.976;20.182;2023-03-01T14:52:35;4.31;54.46
75022;SHT31;63583;49.976;20.182;2023-03-01T14:55:05;4.25;54.77
75022;SHT31;63583;49.976;20.182;2023-03-01T14:57:31;4.28;54.95
75022;SHT31;63583;49.976;20.182;2023-03-01T14:59:59;4.11;54.58
75022;SHT31;63583;49.976;20.182;2023-03-01T15:02:29;4.07;55.61
75022;SHT31;63583;49.976;20.182;2023-03-01T15:04:58;4.10;55.56
75022;SHT31;63583;49.976;20.182;2023-03-01T15:07:36;4.00;56.46
75022;SHT31;63583;49.976;20.182;2023-03-01T15:10:05;3.97;55.20
75022;SHT31;63583;49.976;20.182;2023-03-01T15:12:38;3.96;54.39
75022;SHT31;63583;49.976;20.182;2023-03-01T15:15:30;3.92;53.92
75022;SHT31;63583;49.976;20.182;2023-03-01T15:18:02;3.90;54.56
75022;SHT31;63583;49.976;20.182;2023-03-01T15:20:29;3.85;55.34
75022;SHT31;63583;49.976;20.182;2023-03-01T15:22:59;3.75;55.08
75022;SHT31;63583;49.976;20.182;2023-03-01T15:25:27;3.72;55.49
75022;SHT31;63583;49.976;20.182;2023-03-01T15:27:56;3.65;55.40
75022;SHT31;63583;49.976;20.182;2023-03-01T15:30:29;3.71;55.19
75022;SHT31;63583;49.976;20.182;2023-03-01T15:33:31;3.59;57.41
75022;SHT31;63583;49.976;20.182;2023-03-01T15:35:59;3.54;57.90
75022;SHT31;63583;49.976;20.182;2023-03-01T15:38:52;3.48;57.25
75022;SHT31;63583;49.976;20.182;2023-03-01T15:41:29;3.38;57.92
75022;SHT31;63583;49.976;20.182;2023-03-01T15:44:00;3.31;57.03
75022;SHT31;63583;49.976;20.182;2023-03-01T15:46:34;3.27;56.68
75022;SHT31;63583;49.976;20.182;2023-03-01T15:49:05;3.21;57.14
75022;SHT31;63583;49.976;20.182;2023-03-01T15:51:32;3.15;57.37
75022;SHT31;63583;49.976;20.182;2023-03-01T15:54:01;3.04;58.74
75022;SHT31;63583;49.976;20.182;2023-03-01T15:56:27;3.04;58.24
75022;SHT31;63583;49.976;20.182;2023-03-01T15:58:57;3.01;57.35
75022;SHT31;63583;49.976;20.182;2023-03-01T16:01:23;2.99;57.16
75022;SHT31;63583;49.976;20.182;2023-03-01T16:03:49;2.92;57.10
75022;SHT31;63583;49.976;20.182;2023-03-01T16:06:15;2.83;58.00
75022;SHT31;63583;49.976;20.182;2023-03-01T16:08:40;2.75;58.47
75022;SHT31;63583;49.976;20.182;2023-03-01T16:11:18;2.66;59.00
75022;SHT31;63583;49.976;20.182;2023-03-01T16:13:45;2.55;59.81
75022;SHT31;63583;49.976;20.182;2023-03-01T16:16:12;2.45;60.29
75022;SHT31;63583;49.976;20.182;2023-03-01T16:18:45;2.35;60.93
75022;SHT31;63583;49.976;20.182;2023-03-01T16:21:18;2.25;61.13
75022;SHT31;63583;49.976;20.182;2023-03-01T16:23:45;2.15;61.91
75022;SHT31;63583;49.976;20.182;2023-03-01T16:26:11;2.04;62.55
75022;SHT31;63583;49.976;20.182;2023-03-01T16:28:40;2.01;62.57
75022;SHT31;63583;49.976;20.182;2023-03-01T16:31:06;1.98;62.06
75022;SHT31;63583;49.976;20.182;2023-03-01T16:33:32;1.97;62.10
75022;SHT31;63583;49.976;20.182;2023-03-01T16:36:00;1.91;61.98
75022;SHT31;63583;49.976;20.182;2023-03-01T16:38:28;2.00;61.44
75022;SHT31;63583;49.976;20.182;2023-03-01T16:40:53;1.97;61.58
75022;SHT31;63583;49.976;20.182;2023-03-01T16:43:20;2.00;61.57
75022;SHT31;63583;49.976;20.182;2023-03-01T16:45:45;1.97;61.62
75022;SHT31;63583;49.976;20.182;2023-03-01T16:48:12;1.93;61.79
75022;SHT31;63583;49.976;20.182;2023-03-01T16:50:38;1.83;62.31
75022;SHT31;63583;49.976;20.182;2023-03-01T16:53:04;1.83;62.40
75022;SHT31;63583;49.976;20.182;2023-03-01T16:55:30;1.80;62.83
75022;SHT31;63583;49.976;20.182;2023-03-01T16:57:56;1.74;63.14
75022;SHT31;63583;49.976;20.182;2023-03-01T17:00:22;1.69;63.31
75022;SHT31;63583;49.976;20.182;2023-03-01T17:02:48;1.67;63.21
75022;SHT31;63583;49.976;20.182;2023-03-01T17:05:14;1.69;62.73
75022;SHT31;63583;49.976;20.182;2023-03-01T17:07:40;1.73;62.48
75022;SHT31;63583;49.976;20.182;2023-03-01T17:10:09;1.74;62.22
75022;SHT31;63583;49.976;20.182;2023-03-01T17:12:35;1.71;62.06
75022;SHT31;63583;49.976;20.182;2023-03-01T17:15:01;1.77;61.82
75022;SHT31;63583;49.976;20.182;2023-03-01T17:17:27;1.79;61.95
75022;SHT31;63583;49.976;20.182;2023-03-01T17:19:52;1.79;61.77
75022;SHT31;63583;49.976;20.182;2023-03-01T17:22:19;1.76;61.96
75022;SHT31;63583;49.976;20.182;2023-03-01T17:24:44;1.76;62.12
75022;SHT31;63583;49.976;20.182;2023-03-01T17:27:11;1.62;62.87
75022;SHT31;63583;49.976;20.182;2023-03-01T17:29:38;1.59;62.52